createdAt,value
2017-12-17T00:00:49.075Z,2.20
2017-12-17T00:03:16.535Z,2.20
2017-12-17T00:05:43.991Z,2.20
2017-12-17T00:08:11.455Z,2.30
2017-12-17T00:10:38.911Z,2.20
2017-12-17T00:13:06.369Z,2.20
2017-12-17T00:15:33.854Z,2.20
2017-12-17T00:18:01.305Z,2.20
2017-12-17T00:20:28.762Z,2.20
2017-12-17T00:22:56.244Z,2.20
2017-12-17T00:25:24.471Z,2.10
2017-12-17T00:27:51.943Z,2.10
2017-12-17T00:30:19.399Z,2.10
2017-12-17T00:32:46.854Z,2.10
2017-12-17T00:35:14.326Z,2.10
2017-12-17T00:37:42.590Z,2.10
2017-12-17T00:40:10.054Z,2.00
2017-12-17T00:42:37.511Z,2.00
2017-12-17T00:45:04.971Z,2.00
2017-12-17T00:47:32.430Z,2.00
2017-12-17T00:50:00.653Z,2.10
2017-12-17T00:52:28.107Z,2.00
2017-12-17T00:54:55.597Z,2.10
2017-12-17T00:57:23.042Z,2.20
2017-12-17T00:59:50.499Z,2.30
2017-12-17T01:02:17.970Z,2.30
2017-12-17T01:04:45.423Z,2.30
2017-12-17T01:07:12.879Z,2.30
2017-12-17T01:09:40.351Z,2.30
2017-12-17T01:12:07.806Z,2.30
2017-12-17T01:14:35.284Z,2.20
2017-12-17T01:17:03.505Z,2.10
2017-12-17T01:19:30.962Z,2.10
2017-12-17T01:21:58.427Z,2.10
2017-12-17T01:24:25.888Z,2.00
2017-12-17T01:26:53.343Z,2.00
2017-12-17T01:29:20.802Z,1.90
2017-12-17T01:31:48.267Z,1.80
2017-12-17T01:34:15.732Z,1.80
2017-12-17T01:36:43.197Z,1.80
2017-12-17T01:39:11.424Z,1.70
2017-12-17T01:41:38.882Z,1.70
2017-12-17T01:44:06.354Z,1.70
2017-12-17T01:46:33.847Z,1.80
2017-12-17T01:49:02.067Z,1.80
2017-12-17T01:51:29.525Z,1.80
2017-12-17T01:53:56.978Z,1.70
2017-12-17T01:56:24.439Z,1.70
2017-12-17T01:58:51.892Z,1.70
2017-12-17T02:01:19.352Z,1.60
2017-12-17T02:03:46.819Z,1.70
2017-12-17T02:06:14.284Z,1.70
2017-12-17T02:08:41.748Z,1.70
2017-12-17T02:11:09.235Z,1.70
2017-12-17T02:13:37.451Z,1.90
2017-12-17T02:16:04.902Z,1.90
2017-12-17T02:18:32.367Z,2.00
2017-12-17T02:20:59.823Z,2.00
2017-12-17T02:23:27.288Z,2.10
2017-12-17T02:25:54.750Z,2.10
2017-12-17T02:28:22.214Z,2.10
2017-12-17T02:30:49.689Z,2.10
2017-12-17T02:33:17.158Z,2.10
2017-12-17T02:35:45.386Z,2.00
2017-12-17T02:38:12.847Z,1.90
2017-12-17T02:40:40.303Z,1.90
2017-12-17T02:43:07.754Z,1.90
2017-12-17T02:45:35.228Z,1.80
2017-12-17T02:48:02.687Z,1.80
2017-12-17T02:50:30.141Z,1.70
2017-12-17T02:52:57.603Z,1.70
2017-12-17T02:55:25.051Z,1.70
2017-12-17T02:57:52.543Z,1.70
2017-12-17T03:00:25.587Z,1.60
2017-12-17T03:02:53.050Z,1.60
2017-12-17T03:05:20.513Z,1.60
2017-12-17T03:07:47.967Z,1.60
2017-12-17T03:10:15.442Z,1.60
2017-12-17T03:12:42.901Z,1.50
2017-12-17T03:15:10.367Z,1.50
2017-12-17T03:17:37.834Z,1.40
2017-12-17T03:20:06.052Z,1.30
2017-12-17T03:22:33.532Z,1.30
2017-12-17T03:25:00.991Z,1.30
2017-12-17T03:27:28.438Z,1.20
2017-12-17T03:29:55.919Z,1.20
2017-12-17T03:32:23.375Z,1.20
2017-12-17T03:34:50.837Z,1.10
2017-12-17T03:37:19.069Z,1.20
2017-12-17T03:39:46.538Z,1.20
2017-12-17T03:42:13.994Z,1.20
2017-12-17T03:44:41.664Z,1.20
2017-12-17T03:47:09.935Z,1.20
2017-12-17T03:49:37.438Z,1.20
2017-12-17T03:52:05.730Z,1.20
2017-12-17T03:54:33.186Z,1.20
2017-12-17T03:57:00.647Z,1.20
2017-12-17T03:59:28.166Z,1.30
2017-12-17T04:01:56.391Z,1.70
2017-12-17T04:04:23.847Z,1.70
2017-12-17T04:06:51.315Z,2.00
2017-12-17T04:09:18.775Z,2.20
2017-12-17T04:11:46.226Z,2.30
2017-12-17T04:14:13.706Z,2.30
2017-12-17T04:16:41.228Z,2.30
2017-12-17T04:19:08.698Z,2.20
2017-12-17T04:21:36.156Z,2.20
2017-12-17T04:24:03.612Z,2.10
2017-12-17T04:26:31.097Z,2.00
2017-12-17T04:28:58.551Z,1.90
2017-12-17T04:31:26.011Z,1.90
2017-12-17T04:33:53.474Z,1.80
2017-12-17T04:36:20.923Z,1.70
2017-12-17T04:38:48.386Z,1.60
2017-12-17T04:41:15.895Z,1.60
2017-12-17T04:43:43.348Z,1.50
2017-12-17T04:46:10.817Z,1.50
2017-12-17T04:48:38.259Z,1.50
2017-12-17T04:51:05.726Z,1.40
2017-12-17T04:53:33.212Z,1.40
2017-12-17T04:56:00.655Z,1.30
2017-12-17T04:58:28.133Z,1.20
2017-12-17T05:00:55.594Z,1.20
2017-12-17T05:03:23.051Z,1.20
2017-12-17T05:05:50.519Z,1.10
2017-12-17T05:08:18.736Z,1.00
2017-12-17T05:10:46.196Z,1.00
2017-12-17T05:13:13.675Z,0.90
2017-12-17T05:15:41.134Z,0.90
2017-12-17T05:18:08.594Z,0.90
2017-12-17T05:20:36.056Z,0.90
2017-12-17T05:23:03.514Z,0.80
2017-12-17T05:25:30.958Z,0.80
2017-12-17T05:27:58.418Z,0.80
2017-12-17T05:30:25.875Z,0.70
2017-12-17T05:32:53.330Z,0.70
2017-12-17T05:35:20.787Z,0.70
2017-12-17T05:37:48.242Z,0.70
2017-12-17T05:40:15.711Z,0.60
2017-12-17T05:42:43.179Z,0.70
2017-12-17T05:45:10.924Z,0.70
2017-12-17T05:47:38.383Z,0.70
2017-12-17T05:50:05.844Z,0.70
2017-12-17T05:52:33.299Z,0.70
2017-12-17T05:55:00.758Z,0.70
2017-12-17T05:57:28.249Z,0.60
2017-12-17T05:59:55.708Z,0.60
2017-12-17T06:02:23.183Z,0.60
2017-12-17T06:04:50.640Z,0.60
2017-12-17T06:07:18.106Z,0.60
2017-12-17T06:09:45.583Z,0.60
2017-12-17T06:12:13.035Z,0.50
2017-12-17T06:14:40.509Z,0.50
2017-12-17T06:17:07.958Z,0.50
2017-12-17T06:19:35.436Z,0.50
2017-12-17T06:22:02.895Z,0.40
2017-12-17T06:24:30.355Z,0.40
2017-12-17T06:26:57.816Z,0.30
2017-12-17T06:29:26.047Z,0.30
2017-12-17T06:31:53.547Z,0.30
2017-12-17T06:34:21.012Z,0.30
2017-12-17T06:36:49.249Z,0.40
2017-12-17T06:39:16.707Z,0.40
2017-12-17T06:41:44.197Z,0.40
2017-12-17T06:44:12.415Z,0.50
2017-12-17T06:46:39.894Z,0.40
2017-12-17T06:49:07.365Z,0.50
2017-12-17T06:51:34.910Z,0.40
2017-12-17T06:54:02.388Z,0.50
2017-12-17T06:56:29.855Z,0.50
2017-12-17T06:58:57.306Z,0.50
2017-12-17T07:01:25.552Z,0.40
2017-12-17T07:03:53.052Z,0.40
2017-12-17T07:06:20.563Z,0.40
2017-12-17T07:08:48.042Z,0.40
2017-12-17T07:11:16.282Z,0.30
2017-12-17T07:13:43.741Z,0.30
2017-12-17T07:16:11.190Z,0.30
2017-12-17T07:18:38.653Z,0.30
2017-12-17T07:21:06.115Z,0.30
2017-12-17T07:23:33.623Z,0.40
2017-12-17T07:26:01.855Z,0.30
2017-12-17T07:28:29.307Z,0.30
2017-12-17T07:30:56.783Z,0.30
2017-12-17T07:33:24.355Z,0.30
2017-12-17T07:35:51.824Z,0.30
2017-12-17T07:38:20.044Z,0.50
2017-12-17T07:40:47.502Z,0.50
2017-12-17T07:43:14.969Z,0.50
2017-12-17T07:45:42.475Z,0.60
2017-12-17T07:48:09.916Z,0.70
2017-12-17T07:50:37.375Z,0.70
2017-12-17T07:53:05.607Z,0.80
2017-12-17T07:55:33.085Z,0.80
2017-12-17T07:58:00.533Z,0.80
2017-12-17T08:00:28.004Z,0.90
2017-12-17T08:02:55.467Z,0.90
2017-12-17T08:05:22.919Z,0.90
2017-12-17T08:07:50.437Z,0.90
2017-12-17T08:10:17.883Z,0.90
2017-12-17T08:12:45.354Z,0.80
2017-12-17T08:15:12.807Z,0.80
2017-12-17T08:17:40.263Z,0.70
2017-12-17T08:20:07.735Z,0.70
2017-12-17T08:22:35.193Z,0.70
2017-12-17T08:25:02.647Z,0.70
2017-12-17T08:27:30.111Z,0.60
2017-12-17T08:29:57.565Z,0.60
2017-12-17T08:32:25.027Z,0.60
2017-12-17T08:34:52.487Z,0.60
2017-12-17T08:37:19.967Z,0.70
2017-12-17T08:39:47.421Z,0.70
2017-12-17T08:42:14.870Z,0.80
2017-12-17T08:44:42.331Z,0.90
2017-12-17T08:47:09.792Z,0.90
2017-12-17T08:49:37.243Z,1.00
2017-12-17T08:52:04.714Z,1.00
2017-12-17T08:54:32.934Z,1.10
2017-12-17T08:57:00.394Z,1.10
2017-12-17T08:59:27.859Z,1.20
2017-12-17T09:01:55.309Z,1.30
2017-12-17T09:04:22.772Z,1.30
2017-12-17T09:06:50.239Z,1.40
2017-12-17T09:09:17.699Z,1.40
2017-12-17T09:11:45.172Z,1.60
2017-12-17T09:14:12.627Z,1.60
2017-12-17T09:16:40.087Z,1.70
2017-12-17T09:19:07.554Z,1.70
2017-12-17T09:21:35.850Z,1.80
2017-12-17T09:24:03.324Z,1.80
2017-12-17T09:26:30.787Z,1.90
2017-12-17T09:28:58.247Z,2.00
2017-12-17T09:31:25.724Z,2.00
2017-12-17T09:33:53.186Z,2.20
2017-12-17T09:36:20.646Z,2.30
2017-12-17T09:38:48.123Z,2.30
2017-12-17T09:41:15.591Z,2.40
2017-12-17T09:43:43.824Z,2.60
2017-12-17T09:46:11.290Z,2.60
2017-12-17T09:48:38.751Z,2.70
2017-12-17T09:51:06.218Z,2.80
2017-12-17T09:53:33.684Z,3.00
2017-12-17T09:56:01.158Z,3.00
2017-12-17T09:58:28.618Z,3.10
2017-12-17T10:00:56.074Z,3.20
2017-12-17T10:03:23.543Z,3.30
2017-12-17T10:05:50.995Z,3.40
2017-12-17T10:08:18.464Z,3.50
2017-12-17T10:10:45.927Z,3.60
2017-12-17T10:13:13.379Z,3.70
2017-12-17T10:15:40.843Z,3.80
2017-12-17T10:18:08.312Z,3.90
2017-12-17T10:20:35.803Z,4.00
2017-12-17T10:23:03.262Z,4.00
2017-12-17T10:25:30.722Z,4.20
2017-12-17T10:27:58.175Z,4.30
2017-12-17T10:30:25.643Z,4.40
2017-12-17T10:32:53.909Z,4.60
2017-12-17T10:35:21.369Z,4.60
2017-12-17T10:37:48.806Z,4.70
2017-12-17T10:40:16.262Z,4.80
2017-12-17T10:42:43.727Z,4.90
2017-12-17T10:45:11.218Z,5.00
2017-12-17T10:47:39.428Z,5.20
2017-12-17T10:50:06.900Z,5.20
2017-12-17T10:52:34.351Z,5.20
2017-12-17T10:55:01.800Z,5.30
2017-12-17T10:57:29.264Z,5.40
2017-12-17T10:59:56.719Z,5.50
2017-12-17T11:02:24.167Z,5.60
2017-12-17T11:04:51.636Z,5.70
2017-12-17T11:07:19.096Z,5.80
2017-12-17T11:09:46.545Z,5.90
2017-12-17T11:12:14.772Z,6.00
2017-12-17T11:14:42.982Z,6.10
2017-12-17T11:17:10.440Z,6.10
2017-12-17T11:19:37.906Z,6.10
2017-12-17T11:22:05.355Z,6.20
2017-12-17T11:24:32.823Z,6.30
2017-12-17T11:27:00.270Z,6.40
2017-12-17T11:29:27.725Z,6.40
2017-12-17T11:31:55.195Z,6.50
2017-12-17T11:34:22.650Z,6.60
2017-12-17T11:36:50.108Z,6.60
2017-12-17T11:39:17.565Z,6.70
2017-12-17T11:41:45.014Z,6.80
2017-12-17T11:44:12.475Z,6.90
2017-12-17T11:46:39.936Z,6.90
2017-12-17T11:49:07.392Z,7.00
2017-12-17T11:51:34.863Z,7.00
2017-12-17T11:54:02.318Z,7.00
2017-12-17T11:56:29.782Z,7.00
2017-12-17T11:58:57.244Z,7.00
2017-12-17T12:01:24.695Z,7.00
2017-12-17T12:03:52.508Z,7.00
2017-12-17T12:06:19.956Z,6.90
2017-12-17T12:08:50.723Z,6.80
2017-12-17T12:11:18.191Z,6.90
2017-12-17T12:13:46.024Z,7.00
2017-12-17T12:16:13.512Z,7.10
2017-12-17T12:18:40.985Z,7.10
2017-12-17T12:21:08.425Z,7.20
2017-12-17T12:23:35.905Z,7.20
2017-12-17T12:26:03.377Z,7.10
2017-12-17T12:28:31.582Z,7.00
2017-12-17T12:30:59.039Z,7.00
2017-12-17T12:33:26.503Z,7.00
2017-12-17T12:35:53.988Z,7.00
2017-12-17T12:38:21.459Z,7.00
2017-12-17T12:40:48.914Z,6.90
2017-12-17T12:43:16.371Z,6.90
2017-12-17T12:45:44.130Z,6.80
2017-12-17T12:48:11.591Z,6.80
2017-12-17T12:50:39.050Z,6.80
2017-12-17T12:53:06.506Z,6.80
2017-12-17T12:55:33.982Z,6.70
2017-12-17T12:58:02.229Z,6.70
2017-12-17T13:00:29.675Z,6.70
2017-12-17T13:02:57.141Z,6.70
2017-12-17T13:05:24.605Z,6.70
2017-12-17T13:07:52.058Z,6.70
2017-12-17T13:10:19.518Z,6.70
2017-12-17T13:12:46.970Z,6.60
2017-12-17T13:15:14.424Z,6.60
2017-12-17T13:17:41.892Z,6.60
2017-12-17T13:20:09.347Z,6.60
2017-12-17T13:22:36.803Z,6.60
2017-12-17T13:25:04.258Z,6.50
2017-12-17T13:27:31.706Z,6.50
2017-12-17T13:29:59.162Z,6.50
2017-12-17T13:32:26.643Z,6.40
2017-12-17T13:34:54.863Z,6.30
2017-12-17T13:37:22.300Z,6.30
2017-12-17T13:39:49.771Z,6.30
2017-12-17T13:42:17.227Z,6.40
2017-12-17T13:44:44.678Z,6.30
2017-12-17T13:47:12.134Z,6.20
2017-12-17T13:49:39.592Z,6.20
2017-12-17T13:52:07.055Z,6.20
2017-12-17T13:54:34.517Z,6.30
2017-12-17T13:57:01.980Z,6.30
2017-12-17T13:59:29.439Z,6.30
2017-12-17T14:01:56.896Z,6.20
2017-12-17T14:04:24.344Z,6.20
2017-12-17T14:06:51.803Z,6.20
2017-12-17T14:09:19.256Z,6.10
2017-12-17T14:11:46.723Z,6.10
2017-12-17T14:14:14.185Z,6.10
2017-12-17T14:16:41.642Z,6.00
2017-12-17T14:19:09.095Z,6.00
2017-12-17T14:21:36.548Z,6.00
2017-12-17T14:24:04.011Z,6.00
2017-12-17T14:26:31.461Z,6.00
2017-12-17T14:28:58.923Z,5.90
2017-12-17T14:31:26.384Z,5.90
2017-12-17T14:33:53.873Z,5.90
2017-12-17T14:36:22.115Z,5.80
2017-12-17T14:38:58.346Z,5.80
2017-12-17T14:41:25.810Z,5.80
2017-12-17T14:43:53.271Z,5.70
2017-12-17T14:46:20.718Z,5.70
2017-12-17T14:48:48.188Z,5.70
2017-12-17T14:51:16.483Z,5.70
2017-12-17T14:53:43.930Z,5.60
2017-12-17T14:56:11.400Z,5.60
2017-12-17T14:58:38.842Z,5.60
2017-12-17T15:01:09.195Z,5.50
2017-12-17T15:03:36.660Z,5.40
2017-12-17T15:06:04.883Z,5.40
2017-12-17T15:08:32.376Z,5.40
2017-12-17T15:10:59.823Z,5.40
2017-12-17T15:13:27.267Z,5.40
2017-12-17T15:15:54.735Z,5.40
2017-12-17T15:18:22.190Z,5.40
2017-12-17T15:20:49.642Z,5.40
2017-12-17T15:23:17.102Z,5.30
2017-12-17T15:25:44.551Z,5.30
2017-12-17T15:28:12.019Z,5.30
2017-12-17T15:30:39.467Z,5.30
2017-12-17T15:33:06.918Z,5.30
2017-12-17T15:35:34.395Z,5.30
2017-12-17T15:38:01.843Z,5.20
2017-12-17T15:40:29.347Z,5.20
2017-12-17T15:42:57.571Z,5.30
2017-12-17T15:45:25.022Z,5.30
2017-12-17T15:47:52.480Z,5.30
2017-12-17T15:50:19.957Z,5.30
2017-12-17T15:52:47.407Z,5.20
2017-12-17T15:55:14.868Z,5.20
2017-12-17T15:57:42.324Z,5.20
2017-12-17T16:00:09.781Z,5.20
2017-12-17T16:02:37.226Z,5.20
2017-12-17T16:05:04.690Z,5.20
2017-12-17T16:07:32.152Z,5.20
2017-12-17T16:09:59.602Z,5.10
2017-12-17T16:12:27.075Z,5.10
2017-12-17T16:14:54.528Z,5.10
2017-12-17T16:17:21.974Z,5.10
2017-12-17T16:19:49.442Z,5.00
2017-12-17T16:22:16.895Z,5.00
2017-12-17T16:24:44.349Z,5.00
2017-12-17T16:27:11.811Z,4.90
2017-12-17T16:29:39.303Z,4.90
2017-12-17T16:32:06.781Z,4.90
2017-12-17T16:34:34.234Z,4.90
2017-12-17T16:37:01.699Z,4.90
2017-12-17T16:39:29.162Z,4.90
2017-12-17T16:41:56.631Z,4.90
2017-12-17T16:44:24.075Z,4.90
2017-12-17T16:46:51.540Z,4.90
2017-12-17T16:49:18.995Z,4.80
2017-12-17T16:51:46.456Z,4.80
2017-12-17T16:54:13.960Z,4.80
2017-12-17T16:56:42.179Z,4.80
2017-12-17T16:59:09.647Z,4.80
2017-12-17T17:01:37.108Z,4.80
2017-12-17T17:04:04.562Z,4.80
2017-12-17T17:06:32.032Z,4.80
2017-12-17T17:08:59.541Z,4.80
2017-12-17T17:11:26.999Z,4.80
2017-12-17T17:13:54.458Z,4.80
2017-12-17T17:16:21.907Z,4.90
2017-12-17T17:18:49.399Z,4.90
2017-12-17T17:21:16.855Z,4.80
2017-12-17T17:23:44.344Z,4.80
2017-12-17T17:26:11.790Z,4.80
2017-12-17T17:28:39.238Z,4.80
2017-12-17T17:31:06.720Z,4.80
2017-12-17T17:33:34.947Z,4.80
2017-12-17T17:36:02.415Z,4.80
2017-12-17T17:38:29.889Z,4.70
2017-12-17T17:40:57.339Z,4.70
2017-12-17T17:43:24.807Z,4.80
2017-12-17T17:45:52.271Z,4.70
2017-12-17T17:48:20.495Z,4.70
2017-12-17T17:50:47.959Z,4.70
2017-12-17T17:53:15.415Z,4.60
2017-12-17T17:55:42.875Z,4.70
2017-12-17T17:58:10.364Z,4.60
2017-12-17T18:00:37.810Z,4.70
2017-12-17T18:03:05.266Z,4.60
2017-12-17T18:05:32.747Z,4.50
2017-12-17T18:08:00.958Z,4.50
2017-12-17T18:10:28.423Z,4.50
2017-12-17T18:12:55.910Z,4.50
2017-12-17T18:15:23.374Z,4.50
2017-12-17T18:17:50.826Z,4.50
2017-12-17T18:20:18.298Z,4.50
2017-12-17T18:22:46.523Z,4.50
2017-12-17T18:25:13.985Z,4.40
2017-12-17T18:27:41.470Z,4.40
2017-12-17T18:30:08.924Z,4.40
2017-12-17T18:32:36.387Z,4.40
2017-12-17T18:35:03.860Z,4.30
2017-12-17T18:37:32.076Z,4.40
2017-12-17T18:39:59.542Z,4.30
2017-12-17T18:42:26.995Z,4.30
2017-12-17T18:44:54.461Z,4.40
2017-12-17T18:47:21.932Z,4.30
2017-12-17T18:49:49.387Z,4.30
2017-12-17T18:52:16.851Z,4.30
2017-12-17T18:54:44.323Z,4.30
2017-12-17T18:57:11.771Z,4.30
2017-12-17T18:59:39.222Z,4.30
2017-12-17T19:02:07.487Z,4.20
2017-12-17T19:04:34.947Z,4.20
2017-12-17T19:07:02.398Z,4.20
2017-12-17T19:09:29.866Z,4.20
2017-12-17T19:11:57.330Z,4.10
2017-12-17T19:14:24.785Z,4.10
2017-12-17T19:16:52.260Z,4.10
2017-12-17T19:19:20.474Z,4.00
2017-12-17T19:21:47.934Z,4.00
2017-12-17T19:24:16.171Z,3.90
2017-12-17T19:26:44.397Z,3.90
2017-12-17T19:29:11.856Z,3.90
2017-12-17T19:31:39.326Z,3.90
2017-12-17T19:34:06.786Z,3.90
2017-12-17T19:36:34.251Z,3.80
2017-12-17T19:39:01.723Z,3.80
2017-12-17T19:41:29.947Z,3.80
2017-12-17T19:43:57.419Z,3.80
2017-12-17T19:46:24.895Z,3.80
2017-12-17T19:48:52.351Z,3.70
2017-12-17T19:51:19.822Z,3.80
2017-12-17T19:53:48.046Z,3.70
2017-12-17T19:56:15.523Z,3.70
2017-12-17T19:58:42.999Z,3.70
2017-12-17T20:01:10.471Z,3.70
2017-12-17T20:03:38.689Z,3.70
2017-12-17T20:06:06.165Z,3.70
2017-12-17T20:08:33.660Z,3.70
2017-12-17T20:11:01.884Z,3.70
2017-12-17T20:13:29.359Z,3.70
2017-12-17T20:15:56.816Z,3.80
2017-12-17T20:18:24.296Z,3.70
2017-12-17T20:20:51.758Z,3.80
2017-12-17T20:23:19.991Z,3.70
2017-12-17T20:25:47.467Z,3.70
2017-12-17T20:28:14.931Z,3.70
2017-12-17T20:30:42.399Z,3.70
2017-12-17T20:33:09.924Z,3.70
2017-12-17T20:35:37.402Z,3.70
2017-12-17T20:38:04.862Z,3.70
2017-12-17T20:40:32.336Z,3.60
2017-12-17T20:43:00.554Z,3.60
2017-12-17T20:45:28.012Z,3.60
2017-12-17T20:47:55.488Z,3.60
2017-12-17T20:50:22.960Z,3.60
2017-12-17T20:52:50.419Z,3.60
2017-12-17T20:55:17.895Z,3.60
2017-12-17T20:57:46.131Z,3.60
2017-12-17T21:00:13.623Z,3.60
2017-12-17T21:02:41.867Z,3.60
2017-12-17T21:05:09.339Z,3.60
2017-12-17T21:07:36.820Z,3.60
2017-12-17T21:10:05.046Z,3.60
2017-12-17T21:12:32.515Z,3.60
2017-12-17T21:14:59.987Z,3.60
2017-12-17T21:17:27.459Z,3.60
2017-12-17T21:19:55.704Z,3.60
2017-12-17T21:22:23.176Z,3.50
2017-12-17T21:24:50.630Z,3.60
2017-12-17T21:27:18.098Z,3.60
2017-12-17T21:29:46.351Z,3.60
2017-12-17T21:32:13.834Z,3.60
2017-12-17T21:34:42.070Z,3.60
2017-12-17T21:37:09.526Z,3.60
2017-12-17T21:39:36.991Z,3.60
2017-12-17T21:42:04.466Z,3.60
2017-12-17T21:44:31.932Z,3.70
2017-12-17T21:46:59.405Z,3.70
2017-12-17T21:49:27.628Z,3.70
2017-12-17T21:51:55.099Z,3.70
2017-12-17T21:54:22.570Z,3.80
2017-12-17T21:56:50.039Z,3.80
2017-12-17T21:59:18.271Z,3.80
2017-12-17T22:01:45.746Z,3.80
2017-12-17T22:04:13.216Z,3.90
2017-12-17T22:06:40.672Z,3.90
2017-12-17T22:09:08.138Z,4.00
2017-12-17T22:11:36.375Z,4.00
2017-12-17T22:14:03.915Z,4.00
2017-12-17T22:16:31.383Z,4.00
2017-12-17T22:18:58.852Z,4.00
2017-12-17T22:21:26.307Z,4.00
2017-12-17T22:23:53.788Z,4.10
2017-12-17T22:26:21.251Z,4.10
2017-12-17T22:28:48.724Z,4.10
2017-12-17T22:31:16.224Z,4.20
2017-12-17T22:33:43.678Z,4.20
2017-12-17T22:36:11.157Z,4.20
2017-12-17T22:38:38.638Z,4.20
2017-12-17T22:41:06.143Z,4.20
2017-12-17T22:43:33.597Z,4.30
2017-12-17T22:46:01.068Z,4.30
2017-12-17T22:48:28.526Z,4.30
2017-12-17T22:50:55.996Z,4.30
2017-12-17T22:53:23.471Z,4.30
2017-12-17T22:55:50.964Z,4.30
2017-12-17T22:58:19.169Z,4.30
2017-12-17T23:00:46.643Z,4.30
2017-12-17T23:03:14.103Z,4.40
2017-12-17T23:05:41.564Z,4.40
2017-12-17T23:08:09.043Z,4.40
2017-12-17T23:10:37.274Z,4.40
2017-12-17T23:13:04.738Z,4.40
2017-12-17T23:15:32.202Z,4.40
2017-12-17T23:17:59.668Z,4.40
2017-12-17T23:20:27.140Z,4.40
2017-12-17T23:22:54.618Z,4.40
2017-12-17T23:25:22.079Z,4.40
2017-12-17T23:27:49.559Z,4.40
2017-12-17T23:30:17.032Z,4.40
2017-12-17T23:32:44.498Z,4.40
2017-12-17T23:35:11.955Z,4.40
2017-12-17T23:37:39.414Z,4.40
2017-12-17T23:40:06.890Z,4.50
2017-12-17T23:42:34.351Z,4.50
2017-12-17T23:45:02.672Z,4.50
2017-12-17T23:47:30.130Z,4.50
2017-12-17T23:49:57.591Z,4.50
2017-12-17T23:52:25.054Z,4.50
2017-12-17T23:54:52.527Z,4.50
2017-12-17T23:57:19.995Z,4.50
2017-12-17T23:59:47.467Z,4.50
